sensor_id;sensor_type;location;lat;lon;timestamp;temperature;humidity
49184;DHT22;35021;49.214;12.270;2024-03-22T00:01:46;21.90;33.60
49184;DHT22;35021;49.214;12.270;2024-03-22T00:04:12;21.90;33.60
49184;DHT22;35021;49.214;12.270;2024-03-22T00:06:38;21.90;33.60
49184;DHT22;35021;49.214;12.270;2024-03-22T00:09:04;21.90;33.60
49184;DHT22;35021;49.214;12.270;2024-03-22T00:11:30;21.90;33.50
49184;DHT22;35021;49.214;12.270;2024-03-22T00:13:56;21.90;33.50
49184;DHT22;35021;49.214;12.270;2024-03-22T00:16:22;21.90;33.40
49184;DHT22;35021;49.214;12.270;2024-03-22T00:18:48;21.90;33.40
49184;DHT22;35021;49.214;12.270;2024-03-22T00:21:14;21.80;33.30
49184;DHT22;35021;49.214;12.270;2024-03-22T00:23:39;21.80;33.40
49184;DHT22;35021;49.214;12.270;2024-03-22T00:26:05;21.80;33.40
49184;DHT22;35021;49.214;12.270;2024-03-22T00:28:31;21.70;33.40
49184;DHT22;35021;49.214;12.270;2024-03-22T00:30:57;21.70;33.40
49184;DHT22;35021;49.214;12.270;2024-03-22T00:33:22;21.70;33.40
49184;DHT22;35021;49.214;12.270;2024-03-22T00:35:48;21.70;33.40
49184;DHT22;35021;49.214;12.270;2024-03-22T00:38:14;21.70;33.40
49184;DHT22;35021;49.214;12.270;2024-03-22T00:40:40;21.70;33.30
49184;DHT22;35021;49.214;12.270;2024-03-22T00:43:06;21.70;33.30
49184;DHT22;35021;49.214;12.270;2024-03-22T00:45:32;21.60;33.30
49184;DHT22;35021;49.214;12.270;2024-03-22T00:47:57;21.60;33.30
49184;DHT22;35021;49.214;12.270;2024-03-22T00:50:23;21.60;33.30
49184;DHT22;35021;49.214;12.270;2024-03-22T00:52:52;21.60;33.20
49184;DHT22;35021;49.214;12.270;2024-03-22T00:55:20;21.60;33.30
49184;DHT22;35021;49.214;12.270;2024-03-22T00:57:46;21.60;33.20
49184;DHT22;35021;49.214;12.270;2024-03-22T01:00:12;21.60;33.20
49184;DHT22;35021;49.214;12.270;2024-03-22T01:02:38;21.60;33.20
49184;DHT22;35021;49.214;12.270;2024-03-22T01:05:04;21.60;33.20
49184;DHT22;35021;49.214;12.270;2024-03-22T01:07:30;21.60;33.20
49184;DHT22;35021;49.214;12.270;2024-03-22T01:09:56;21.60;33.20
49184;DHT22;35021;49.214;12.270;2024-03-22T01:12:21;21.60;33.20
49184;DHT22;35021;49.214;12.270;2024-03-22T01:14:47;21.60;33.20
49184;DHT22;35021;49.214;12.270;2024-03-22T01:17:13;21.60;33.20
49184;DHT22;35021;49.214;12.270;2024-03-22T01:19:39;21.60;33.10
49184;DHT22;35021;49.214;12.270;2024-03-22T01:22:05;21.60;33.10
49184;DHT22;35021;49.214;12.270;2024-03-22T01:24:30;21.60;33.00
49184;DHT22;35021;49.214;12.270;2024-03-22T01:26:56;21.60;33.10
49184;DHT22;35021;49.214;12.270;2024-03-22T01:29:22;21.50;33.10
49184;DHT22;35021;49.214;12.270;2024-03-22T01:31:48;21.50;33.10
49184;DHT22;35021;49.214;12.270;2024-03-22T01:34:14;21.50;33.20
49184;DHT22;35021;49.214;12.270;2024-03-22T01:36:40;21.50;33.90
49184;DHT22;35021;49.214;12.270;2024-03-22T01:39:06;21.50;33.20
49184;DHT22;35021;49.214;12.270;2024-03-22T01:41:32;21.40;33.10
49184;DHT22;35021;49.214;12.270;2024-03-22T01:43:58;21.40;33.10
49184;DHT22;35021;49.214;12.270;2024-03-22T01:46:23;21.40;33.10
49184;DHT22;35021;49.214;12.270;2024-03-22T01:48:49;21.40;33.00
49184;DHT22;35021;49.214;12.270;2024-03-22T01:51:16;21.40;33.10
49184;DHT22;35021;49.214;12.270;2024-03-22T01:53:42;21.40;33.10
49184;DHT22;35021;49.214;12.270;2024-03-22T01:56:08;21.40;33.10
49184;DHT22;35021;49.214;12.270;2024-03-22T01:58:33;21.40;33.20
49184;DHT22;35021;49.214;12.270;2024-03-22T02:00:59;21.40;33.20
49184;DHT22;35021;49.214;12.270;2024-03-22T02:03:25;21.40;33.40
49184;DHT22;35021;49.214;12.270;2024-03-22T02:05:51;21.40;33.40
49184;DHT22;35021;49.214;12.270;2024-03-22T02:08:17;21.40;33.60
49184;DHT22;35021;49.214;12.270;2024-03-22T02:10:43;21.40;33.70
49184;DHT22;35021;49.214;12.270;2024-03-22T02:13:09;21.40;33.80
49184;DHT22;35021;49.214;12.270;2024-03-22T02:15:35;21.40;33.80
49184;DHT22;35021;49.214;12.270;2024-03-22T02:18:00;21.40;33.90
49184;DHT22;35021;49.214;12.270;2024-03-22T02:20:26;21.40;34.00
49184;DHT22;35021;49.214;12.270;2024-03-22T02:22:52;21.40;34.00
49184;DHT22;35021;49.214;12.270;2024-03-22T02:25:18;21.40;34.00
49184;DHT22;35021;49.214;12.270;2024-03-22T02:27:43;21.40;34.00
49184;DHT22;35021;49.214;12.270;2024-03-22T02:30:09;21.40;34.00
49184;DHT22;35021;49.214;12.270;2024-03-22T02:32:35;21.40;34.00
49184;DHT22;35021;49.214;12.270;2024-03-22T02:35:02;21.40;34.00
49184;DHT22;35021;49.214;12.270;2024-03-22T02:37:28;21.50;34.00
49184;DHT22;35021;49.214;12.270;2024-03-22T02:39:54;21.40;33.90
49184;DHT22;35021;49.214;12.270;2024-03-22T02:42:20;21.40;34.00
49184;DHT22;35021;49.214;12.270;2024-03-22T02:44:46;21.40;33.90
49184;DHT22;35021;49.214;12.270;2024-03-22T02:47:11;21.40;33.90
49184;DHT22;35021;49.214;12.270;2024-03-22T02:49:40;21.40;33.90
49184;DHT22;35021;49.214;12.270;2024-03-22T02:52:06;21.40;33.90
49184;DHT22;35021;49.214;12.270;2024-03-22T02:54:31;21.40;33.90
49184;DHT22;35021;49.214;12.270;2024-03-22T02:56:57;21.40;34.00
49184;DHT22;35021;49.214;12.270;2024-03-22T02:59:26;21.40;34.00
49184;DHT22;35021;49.214;12.270;2024-03-22T03:01:52;21.40;34.00
49184;DHT22;35021;49.214;12.270;2024-03-22T03:04:18;21.30;34.00
49184;DHT22;35021;49.214;12.270;2024-03-22T03:06:44;21.30;34.10
49184;DHT22;35021;49.214;12.270;2024-03-22T03:09:11;21.30;34.10
49184;DHT22;35021;49.214;12.270;2024-03-22T03:11:40;21.30;34.10
49184;DHT22;35021;49.214;12.270;2024-03-22T03:14:06;21.40;34.00
49184;DHT22;35021;49.214;12.270;2024-03-22T03:16:32;21.40;34.00
49184;DHT22;35021;49.214;12.270;2024-03-22T03:18:58;21.50;33.90
49184;DHT22;35021;49.214;12.270;2024-03-22T03:21:24;21.60;33.80
49184;DHT22;35021;49.214;12.270;2024-03-22T03:23:49;21.60;33.60
49184;DHT22;35021;49.214;12.270;2024-03-22T03:26:15;21.70;33.50
49184;DHT22;35021;49.214;12.270;2024-03-22T03:28:41;21.80;33.40
49184;DHT22;35021;49.214;12.270;2024-03-22T03:31:07;21.90;33.20
49184;DHT22;35021;49.214;12.270;2024-03-22T03:33:33;22.00;33.10
49184;DHT22;35021;49.214;12.270;2024-03-22T03:35:59;22.10;33.00
49184;DHT22;35021;49.214;12.270;2024-03-22T03:38:24;22.10;32.90
49184;DHT22;35021;49.214;12.270;2024-03-22T03:40:50;22.10;32.80
49184;DHT22;35021;49.214;12.270;2024-03-22T03:43:16;22.20;32.90
49184;DHT22;35021;49.214;12.270;2024-03-22T03:45:42;22.20;32.80
49184;DHT22;35021;49.214;12.270;2024-03-22T03:48:07;22.10;32.80
49184;DHT22;35021;49.214;12.270;2024-03-22T03:50:33;22.10;32.90
49184;DHT22;35021;49.214;12.270;2024-03-22T03:52:59;22.00;32.90
49184;DHT22;35021;49.214;12.270;2024-03-22T03:55:25;22.00;33.00
49184;DHT22;35021;49.214;12.270;2024-03-22T03:57:50;22.00;33.00
49184;DHT22;35021;49.214;12.270;2024-03-22T04:00:18;22.10;33.10
49184;DHT22;35021;49.214;12.270;2024-03-22T04:02:44;22.10;33.00
49184;DHT22;35021;49.214;12.270;2024-03-22T04:05:09;22.20;33.00
49184;DHT22;35021;49.214;12.270;2024-03-22T04:07:35;22.20;32.90
49184;DHT22;35021;49.214;12.270;2024-03-22T04:10:01;22.30;32.80
49184;DHT22;35021;49.214;12.270;2024-03-22T04:12:29;22.30;32.70
49184;DHT22;35021;49.214;12.270;2024-03-22T04:14:55;22.30;32.70
49184;DHT22;35021;49.214;12.270;2024-03-22T04:17:20;22.30;32.70
49184;DHT22;35021;49.214;12.270;2024-03-22T04:19:46;22.30;32.70
49184;DHT22;35021;49.214;12.270;2024-03-22T04:22:14;22.20;32.80
49184;DHT22;35021;49.214;12.270;2024-03-22T04:24:40;22.10;32.80
49184;DHT22;35021;49.214;12.270;2024-03-22T04:27:06;22.00;33.00
49184;DHT22;35021;49.214;12.270;2024-03-22T04:29:33;21.90;33.00
49184;DHT22;35021;49.214;12.270;2024-03-22T04:31:58;21.90;33.10
49184;DHT22;35021;49.214;12.270;2024-03-22T04:34:24;21.80;33.20
49184;DHT22;35021;49.214;12.270;2024-03-22T04:36:50;21.80;33.30
49184;DHT22;35021;49.214;12.270;2024-03-22T04:39:19;21.80;33.30
49184;DHT22;35021;49.214;12.270;2024-03-22T04:41:44;21.80;33.40
49184;DHT22;35021;49.214;12.270;2024-03-22T04:44:10;21.80;33.30
49184;DHT22;35021;49.214;12.270;2024-03-22T04:46:36;21.80;33.30
49184;DHT22;35021;49.214;12.270;2024-03-22T04:49:02;21.90;33.20
49184;DHT22;35021;49.214;12.270;2024-03-22T04:51:28;21.90;33.10
49184;DHT22;35021;49.214;12.270;2024-03-22T04:53:53;22.00;33.00
49184;DHT22;35021;49.214;12.270;2024-03-22T04:56:19;22.00;32.90
49184;DHT22;35021;49.214;12.270;2024-03-22T04:58:45;22.00;32.80
49184;DHT22;35021;49.214;12.270;2024-03-22T05:01:11;22.00;32.80
49184;DHT22;35021;49.214;12.270;2024-03-22T05:03:38;21.90;32.90
49184;DHT22;35021;49.214;12.270;2024-03-22T05:06:04;21.80;33.00
49184;DHT22;35021;49.214;12.270;2024-03-22T05:08:32;21.80;33.10
49184;DHT22;35021;49.214;12.270;2024-03-22T05:10:58;21.70;33.10
49184;DHT22;35021;49.214;12.270;2024-03-22T05:13:24;21.70;33.20
49184;DHT22;35021;49.214;12.270;2024-03-22T05:15:49;21.60;33.20
49184;DHT22;35021;49.214;12.270;2024-03-22T05:18:15;21.60;33.30
49184;DHT22;35021;49.214;12.270;2024-03-22T05:20:41;21.60;33.20
49184;DHT22;35021;49.214;12.270;2024-03-22T05:23:07;21.70;33.20
49184;DHT22;35021;49.214;12.270;2024-03-22T05:25:33;21.70;33.20
49184;DHT22;35021;49.214;12.270;2024-03-22T05:27:58;21.80;33.20
49184;DHT22;35021;49.214;12.270;2024-03-22T05:30:24;21.80;33.10
49184;DHT22;35021;49.214;12.270;2024-03-22T05:32:50;21.80;33.00
49184;DHT22;35021;49.214;12.270;2024-03-22T05:35:16;21.90;33.10
49184;DHT22;35021;49.214;12.270;2024-03-22T05:37:42;21.90;33.10
49184;DHT22;35021;49.214;12.270;2024-03-22T05:40:08;21.80;33.00
49184;DHT22;35021;49.214;12.270;2024-03-22T05:42:34;21.80;33.10
49184;DHT22;35021;49.214;12.270;2024-03-22T05:45:00;21.70;33.00
49184;DHT22;35021;49.214;12.270;2024-03-22T05:47:26;21.70;33.10
49184;DHT22;35021;49.214;12.270;2024-03-22T05:49:52;21.60;33.20
49184;DHT22;35021;49.214;12.270;2024-03-22T05:52:18;21.60;33.30
49184;DHT22;35021;49.214;12.270;2024-03-22T05:54:44;21.60;33.30
49184;DHT22;35021;49.214;12.270;2024-03-22T05:57:10;21.50;33.20
49184;DHT22;35021;49.214;12.270;2024-03-22T05:59:36;21.50;33.10
49184;DHT22;35021;49.214;12.270;2024-03-22T06:02:02;21.50;33.10
49184;DHT22;35021;49.214;12.270;2024-03-22T06:04:28;21.60;33.20
49184;DHT22;35021;49.214;12.270;2024-03-22T06:06:54;21.60;33.00
49184;DHT22;35021;49.214;12.270;2024-03-22T06:09:20;21.70;32.80
49184;DHT22;35021;49.214;12.270;2024-03-22T06:12:05;21.70;32.70
49184;DHT22;35021;49.214;12.270;2024-03-22T06:14:31;21.80;32.70
49184;DHT22;35021;49.214;12.270;2024-03-22T06:16:57;21.90;32.60
49184;DHT22;35021;49.214;12.270;2024-03-22T06:19:23;21.90;32.60
49184;DHT22;35021;49.214;12.270;2024-03-22T06:21:49;21.90;33.40
49184;DHT22;35021;49.214;12.270;2024-03-22T06:24:15;21.80;32.70
49184;DHT22;35021;49.214;12.270;2024-03-22T06:26:41;21.80;32.70
49184;DHT22;35021;49.214;12.270;2024-03-22T06:29:06;21.80;32.90
49184;DHT22;35021;49.214;12.270;2024-03-22T06:31:32;21.70;32.90
49184;DHT22;35021;49.214;12.270;2024-03-22T06:33:58;21.70;32.90
49184;DHT22;35021;49.214;12.270;2024-03-22T06:36:28;21.70;32.90
49184;DHT22;35021;49.214;12.270;2024-03-22T06:38:54;21.70;33.00
49184;DHT22;35021;49.214;12.270;2024-03-22T06:41:20;21.70;32.90
49184;DHT22;35021;49.214;12.270;2024-03-22T06:43:46;21.80;32.90
49184;DHT22;35021;49.214;12.270;2024-03-22T06:46:12;21.90;32.90
49184;DHT22;35021;49.214;12.270;2024-03-22T06:48:38;21.90;32.80
49184;DHT22;35021;49.214;12.270;2024-03-22T06:51:04;22.00;32.90
49184;DHT22;35021;49.214;12.270;2024-03-22T06:53:29;22.10;32.80
49184;DHT22;35021;49.214;12.270;2024-03-22T06:55:55;22.10;32.70
49184;DHT22;35021;49.214;12.270;2024-03-22T06:58:21;22.20;33.40
49184;DHT22;35021;49.214;12.270;2024-03-22T07:00:47;22.20;32.60
49184;DHT22;35021;49.214;12.270;2024-03-22T07:03:13;22.20;32.50
49184;DHT22;35021;49.214;12.270;2024-03-22T07:05:38;22.20;32.60
49184;DHT22;35021;49.214;12.270;2024-03-22T07:08:04;22.10;32.80
49184;DHT22;35021;49.214;12.270;2024-03-22T07:10:30;22.00;32.90
49184;DHT22;35021;49.214;12.270;2024-03-22T07:12:56;22.00;33.00
49184;DHT22;35021;49.214;12.270;2024-03-22T07:15:23;21.90;33.10
49184;DHT22;35021;49.214;12.270;2024-03-22T07:17:49;21.90;33.20
49184;DHT22;35021;49.214;12.270;2024-03-22T07:20:15;21.90;33.30
49184;DHT22;35021;49.214;12.270;2024-03-22T07:22:41;21.90;33.30
49184;DHT22;35021;49.214;12.270;2024-03-22T07:25:07;21.90;33.30
49184;DHT22;35021;49.214;12.270;2024-03-22T07:27:35;22.00;33.30
49184;DHT22;35021;49.214;12.270;2024-03-22T07:30:01;22.00;33.30
49184;DHT22;35021;49.214;12.270;2024-03-22T07:32:28;22.00;33.30
49184;DHT22;35021;49.214;12.270;2024-03-22T07:34:54;22.10;33.30
49184;DHT22;35021;49.214;12.270;2024-03-22T07:37:20;22.10;33.30
49184;DHT22;35021;49.214;12.270;2024-03-22T07:39:46;22.10;33.30
49184;DHT22;35021;49.214;12.270;2024-03-22T07:42:12;22.10;33.40
49184;DHT22;35021;49.214;12.270;2024-03-22T07:44:37;22.10;33.50
49184;DHT22;35021;49.214;12.270;2024-03-22T07:47:03;22.00;33.50
49184;DHT22;35021;49.214;12.270;2024-03-22T07:49:30;22.00;33.80
49184;DHT22;35021;49.214;12.270;2024-03-22T07:51:57;22.00;34.70
49184;DHT22;35021;49.214;12.270;2024-03-22T07:54:22;21.90;34.10
49184;DHT22;35021;49.214;12.270;2024-03-22T07:56:48;21.90;34.20
49184;DHT22;35021;49.214;12.270;2024-03-22T07:59:14;21.90;34.30
49184;DHT22;35021;49.214;12.270;2024-03-22T08:01:40;22.00;34.40
49184;DHT22;35021;49.214;12.270;2024-03-22T08:04:06;22.00;35.10
49184;DHT22;35021;49.214;12.270;2024-03-22T08:06:31;22.00;34.40
49184;DHT22;35021;49.214;12.270;2024-03-22T08:08:57;22.10;34.50
49184;DHT22;35021;49.214;12.270;2024-03-22T08:11:23;22.20;34.50
49184;DHT22;35021;49.214;12.270;2024-03-22T08:13:49;22.30;34.40
49184;DHT22;35021;49.214;12.270;2024-03-22T08:16:15;22.30;34.40
49184;DHT22;35021;49.214;12.270;2024-03-22T08:18:41;22.30;34.40
49184;DHT22;35021;49.214;12.270;2024-03-22T08:21:07;22.40;34.40
49184;DHT22;35021;49.214;12.270;2024-03-22T08:23:32;22.30;34.50
49184;DHT22;35021;49.214;12.270;2024-03-22T08:25:58;22.30;34.60
49184;DHT22;35021;49.214;12.270;2024-03-22T08:28:24;22.20;34.80
49184;DHT22;35021;49.214;12.270;2024-03-22T08:30:50;22.20;35.10
49184;DHT22;35021;49.214;12.270;2024-03-22T08:33:16;22.10;35.20
49184;DHT22;35021;49.214;12.270;2024-03-22T08:35:41;22.10;35.40
49184;DHT22;35021;49.214;12.270;2024-03-22T08:38:07;22.00;35.50
49184;DHT22;35021;49.214;12.270;2024-03-22T08:40:38;22.00;35.70
49184;DHT22;35021;49.214;12.270;2024-03-22T08:43:07;22.00;35.80
49184;DHT22;35021;49.214;12.270;2024-03-22T08:45:33;22.10;35.90
49184;DHT22;35021;49.214;12.270;2024-03-22T08:47:59;22.10;35.90
49184;DHT22;35021;49.214;12.270;2024-03-22T08:50:25;22.10;35.90
49184;DHT22;35021;49.214;12.270;2024-03-22T08:52:51;22.20;36.10
49184;DHT22;35021;49.214;12.270;2024-03-22T08:55:29;22.20;36.10
49184;DHT22;35021;49.214;12.270;2024-03-22T08:57:56;22.20;36.20
49184;DHT22;35021;49.214;12.270;2024-03-22T09:00:21;22.20;36.20
49184;DHT22;35021;49.214;12.270;2024-03-22T09:02:47;22.20;36.30
49184;DHT22;35021;49.214;12.270;2024-03-22T09:05:13;22.10;36.40
49184;DHT22;35021;49.214;12.270;2024-03-22T09:07:39;22.10;36.60
49184;DHT22;35021;49.214;12.270;2024-03-22T09:10:05;22.10;36.80
49184;DHT22;35021;49.214;12.270;2024-03-22T09:12:31;22.00;37.00
49184;DHT22;35021;49.214;12.270;2024-03-22T09:14:57;22.00;37.10
49184;DHT22;35021;49.214;12.270;2024-03-22T09:17:23;22.00;37.20
49184;DHT22;35021;49.214;12.270;2024-03-22T09:19:49;22.10;37.30
49184;DHT22;35021;49.214;12.270;2024-03-22T09:22:15;22.10;37.30
49184;DHT22;35021;49.214;12.270;2024-03-22T09:24:41;22.20;37.40
49184;DHT22;35021;49.214;12.270;2024-03-22T09:27:08;22.20;37.30
49184;DHT22;35021;49.214;12.270;2024-03-22T09:29:36;22.30;37.50
49184;DHT22;35021;49.214;12.270;2024-03-22T09:32:02;22.30;38.30
49184;DHT22;35021;49.214;12.270;2024-03-22T09:34:28;22.30;37.70
49184;DHT22;35021;49.214;12.270;2024-03-22T09:36:56;22.20;37.70
49184;DHT22;35021;49.214;12.270;2024-03-22T09:39:24;22.20;37.80
49184;DHT22;35021;49.214;12.270;2024-03-22T09:41:52;22.10;37.90
49184;DHT22;35021;49.214;12.270;2024-03-22T09:44:18;22.10;38.10
49184;DHT22;35021;49.214;12.270;2024-03-22T09:46:48;22.00;38.30
49184;DHT22;35021;49.214;12.270;2024-03-22T09:49:15;22.00;38.50
49184;DHT22;35021;49.214;12.270;2024-03-22T09:51:43;21.90;38.60
49184;DHT22;35021;49.214;12.270;2024-03-22T09:54:09;21.90;38.70
49184;DHT22;35021;49.214;12.270;2024-03-22T09:56:35;21.90;38.80
49184;DHT22;35021;49.214;12.270;2024-03-22T09:59:03;21.90;38.90
49184;DHT22;35021;49.214;12.270;2024-03-22T10:01:29;21.90;38.80
49184;DHT22;35021;49.214;12.270;2024-03-22T10:03:56;22.00;38.80
49184;DHT22;35021;49.214;12.270;2024-03-22T10:06:21;22.00;38.70
49184;DHT22;35021;49.214;12.270;2024-03-22T10:08:48;22.00;38.60
49184;DHT22;35021;49.214;12.270;2024-03-22T10:11:13;22.10;38.40
49184;DHT22;35021;49.214;12.270;2024-03-22T10:13:39;22.10;38.30
49184;DHT22;35021;49.214;12.270;2024-03-22T10:16:05;22.20;38.30
49184;DHT22;35021;49.214;12.270;2024-03-22T10:18:34;22.20;38.30
49184;DHT22;35021;49.214;12.270;2024-03-22T10:21:00;22.30;38.20
49184;DHT22;35021;49.214;12.270;2024-03-22T10:23:27;22.30;38.20
49184;DHT22;35021;49.214;12.270;2024-03-22T10:25:53;22.40;38.20
49184;DHT22;35021;49.214;12.270;2024-03-22T10:28:19;22.40;38.20
49184;DHT22;35021;49.214;12.270;2024-03-22T10:30:45;22.50;38.30
49184;DHT22;35021;49.214;12.270;2024-03-22T10:33:13;22.50;38.20
49184;DHT22;35021;49.214;12.270;2024-03-22T10:35:39;22.60;38.20
49184;DHT22;35021;49.214;12.270;2024-03-22T10:38:05;22.60;38.20
49184;DHT22;35021;49.214;12.270;2024-03-22T10:40:33;22.70;38.80
49184;DHT22;35021;49.214;12.270;2024-03-22T10:43:00;22.70;38.20
49184;DHT22;35021;49.214;12.270;2024-03-22T10:45:28;22.80;38.20
49184;DHT22;35021;49.214;12.270;2024-03-22T10:47:55;22.80;38.20
49184;DHT22;35021;49.214;12.270;2024-03-22T10:50:21;22.90;38.30
49184;DHT22;35021;49.214;12.270;2024-03-22T10:52:56;22.90;38.30
49184;DHT22;35021;49.214;12.270;2024-03-22T10:55:37;22.90;38.30
49184;DHT22;35021;49.214;12.270;2024-03-22T10:58:04;23.00;38.20
49184;DHT22;35021;49.214;12.270;2024-03-22T11:00:33;23.00;38.10
49184;DHT22;35021;49.214;12.270;2024-03-22T11:03:01;23.10;38.10
49184;DHT22;35021;49.214;12.270;2024-03-22T11:05:27;23.20;38.20
49184;DHT22;35021;49.214;12.270;2024-03-22T11:08:00;23.20;38.10
49184;DHT22;35021;49.214;12.270;2024-03-22T11:10:29;23.30;38.00
49184;DHT22;35021;49.214;12.270;2024-03-22T11:13:01;23.30;37.90
49184;DHT22;35021;49.214;12.270;2024-03-22T11:15:28;23.40;37.80
49184;DHT22;35021;49.214;12.270;2024-03-22T11:17:55;23.50;37.80
49184;DHT22;35021;49.214;12.270;2024-03-22T11:20:22;23.50;37.70
49184;DHT22;35021;49.214;12.270;2024-03-22T11:22:47;23.60;37.60
49184;DHT22;35021;49.214;12.270;2024-03-22T11:25:13;23.60;37.50
49184;DHT22;35021;49.214;12.270;2024-03-22T11:27:39;23.70;37.60
49184;DHT22;35021;49.214;12.270;2024-03-22T11:30:05;23.70;37.50
49184;DHT22;35021;49.214;12.270;2024-03-22T11:32:31;23.70;37.50
49184;DHT22;35021;49.214;12.270;2024-03-22T11:35:00;23.70;37.50
49184;DHT22;35021;49.214;12.270;2024-03-22T11:37:25;23.80;37.50
49184;DHT22;35021;49.214;12.270;2024-03-22T11:39:51;23.80;37.40
49184;DHT22;35021;49.214;12.270;2024-03-22T11:42:17;23.90;37.40
49184;DHT22;35021;49.214;12.270;2024-03-22T11:44:43;23.90;37.40
49184;DHT22;35021;49.214;12.270;2024-03-22T11:47:09;24.00;37.40
49184;DHT22;35021;49.214;12.270;2024-03-22T11:49:35;24.10;37.30
49184;DHT22;35021;49.214;12.270;2024-03-22T11:52:01;24.20;37.30
49184;DHT22;35021;49.214;12.270;2024-03-22T11:54:27;24.20;37.20
49184;DHT22;35021;49.214;12.270;2024-03-22T11:56:56;24.30;37.20
49184;DHT22;35021;49.214;12.270;2024-03-22T11:59:22;24.20;37.10
49184;DHT22;35021;49.214;12.270;2024-03-22T12:01:48;24.20;37.10
49184;DHT22;35021;49.214;12.270;2024-03-22T12:04:14;24.20;37.20
49184;DHT22;35021;49.214;12.270;2024-03-22T12:06:43;24.20;37.20
49184;DHT22;35021;49.214;12.270;2024-03-22T12:09:09;24.20;37.20
49184;DHT22;35021;49.214;12.270;2024-03-22T12:11:38;24.10;37.30
49184;DHT22;35021;49.214;12.270;2024-03-22T12:14:03;24.10;37.30
49184;DHT22;35021;49.214;12.270;2024-03-22T12:16:30;24.00;37.50
49184;DHT22;35021;49.214;12.270;2024-03-22T12:18:55;23.90;37.60
49184;DHT22;35021;49.214;12.270;2024-03-22T12:21:21;23.80;37.70
49184;DHT22;35021;49.214;12.270;2024-03-22T12:23:47;23.70;37.90
49184;DHT22;35021;49.214;12.270;2024-03-22T12:26:13;23.60;38.10
49184;DHT22;35021;49.214;12.270;2024-03-22T12:28:39;23.50;38.20
49184;DHT22;35021;49.214;12.270;2024-03-22T12:31:05;23.40;38.30
49184;DHT22;35021;49.214;12.270;2024-03-22T12:33:31;23.30;38.30
49184;DHT22;35021;49.214;12.270;2024-03-22T12:35:57;23.20;38.40
49184;DHT22;35021;49.214;12.270;2024-03-22T12:38:22;23.10;38.50
49184;DHT22;35021;49.214;12.270;2024-03-22T12:40:48;23.10;38.50
49184;DHT22;35021;49.214;12.270;2024-03-22T12:43:14;23.10;38.40
49184;DHT22;35021;49.214;12.270;2024-03-22T12:45:40;23.00;38.40
49184;DHT22;35021;49.214;12.270;2024-03-22T12:48:06;22.90;38.50
49184;DHT22;35021;49.214;12.270;2024-03-22T12:50:32;22.90;38.60
49184;DHT22;35021;49.214;12.270;2024-03-22T12:52:59;22.90;38.70
49184;DHT22;35021;49.214;12.270;2024-03-22T12:55:25;22.80;38.70
49184;DHT22;35021;49.214;12.270;2024-03-22T12:57:51;22.80;38.80
49184;DHT22;35021;49.214;12.270;2024-03-22T13:00:17;22.70;38.90
49184;DHT22;35021;49.214;12.270;2024-03-22T13:02:46;22.70;38.90
49184;DHT22;35021;49.214;12.270;2024-03-22T13:05:12;22.70;39.00
49184;DHT22;35021;49.214;12.270;2024-03-22T13:07:38;22.70;39.10
49184;DHT22;35021;49.214;12.270;2024-03-22T13:10:04;22.70;39.10
49184;DHT22;35021;49.214;12.270;2024-03-22T13:12:31;22.70;39.10
49184;DHT22;35021;49.214;12.270;2024-03-22T13:14:57;22.70;39.10
49184;DHT22;35021;49.214;12.270;2024-03-22T13:17:23;22.70;39.10
49184;DHT22;35021;49.214;12.270;2024-03-22T13:19:49;22.70;39.10
49184;DHT22;35021;49.214;12.270;2024-03-22T13:22:15;22.70;39.10
49184;DHT22;35021;49.214;12.270;2024-03-22T13:24:44;22.70;39.10
49184;DHT22;35021;49.214;12.270;2024-03-22T13:27:10;22.70;39.10
49184;DHT22;35021;49.214;12.270;2024-03-22T13:29:36;22.60;39.10
49184;DHT22;35021;49.214;12.270;2024-03-22T13:32:02;22.60;39.20
49184;DHT22;35021;49.214;12.270;2024-03-22T13:34:28;22.60;39.30
49184;DHT22;35021;49.214;12.270;2024-03-22T13:36:54;22.60;39.40
49184;DHT22;35021;49.214;12.270;2024-03-22T13:39:20;22.60;39.40
49184;DHT22;35021;49.214;12.270;2024-03-22T13:41:46;22.60;39.30
49184;DHT22;35021;49.214;12.270;2024-03-22T13:44:13;22.70;39.30
49184;DHT22;35021;49.214;12.270;2024-03-22T13:46:38;22.80;39.20
49184;DHT22;35021;49.214;12.270;2024-03-22T13:49:14;22.90;39.20
49184;DHT22;35021;49.214;12.270;2024-03-22T13:51:46;22.90;39.00
49184;DHT22;35021;49.214;12.270;2024-03-22T13:54:12;23.10;38.90
49184;DHT22;35021;49.214;12.270;2024-03-22T13:56:38;23.20;38.70
49184;DHT22;35021;49.214;12.270;2024-03-22T13:59:04;23.30;38.60
49184;DHT22;35021;49.214;12.270;2024-03-22T14:01:36;23.40;39.10
49184;DHT22;35021;49.214;12.270;2024-03-22T14:04:05;23.40;38.30
49184;DHT22;35021;49.214;12.270;2024-03-22T14:06:32;23.50;38.30
49184;DHT22;35021;49.214;12.270;2024-03-22T14:08:58;23.50;38.20
49184;DHT22;35021;49.214;12.270;2024-03-22T14:11:27;23.50;38.20
49184;DHT22;35021;49.214;12.270;2024-03-22T14:13:53;23.50;38.10
49184;DHT22;35021;49.214;12.270;2024-03-22T14:16:19;23.40;38.10
49184;DHT22;35021;49.214;12.270;2024-03-22T14:18:44;23.40;38.10
49184;DHT22;35021;49.214;12.270;2024-03-22T14:21:10;23.40;38.20
49184;DHT22;35021;49.214;12.270;2024-03-22T14:23:40;23.40;38.20
49184;DHT22;35021;49.214;12.270;2024-03-22T14:26:05;23.40;38.30
49184;DHT22;35021;49.214;12.270;2024-03-22T14:28:31;23.40;39.10
49184;DHT22;35021;49.214;12.270;2024-03-22T14:30:59;23.30;38.40
49184;DHT22;35021;49.214;12.270;2024-03-22T14:33:24;23.30;38.40
49184;DHT22;35021;49.214;12.270;2024-03-22T14:35:50;23.30;38.40
49184;DHT22;35021;49.214;12.270;2024-03-22T14:38:16;23.20;38.40
49184;DHT22;35021;49.214;12.270;2024-03-22T14:40:42;23.20;39.10
49184;DHT22;35021;49.214;12.270;2024-03-22T14:43:08;23.20;38.50
49184;DHT22;35021;49.214;12.270;2024-03-22T14:45:34;23.20;38.50
49184;DHT22;35021;49.214;12.270;2024-03-22T14:47:59;23.20;38.50
49184;DHT22;35021;49.214;12.270;2024-03-22T14:50:25;23.10;38.50
49184;DHT22;35021;49.214;12.270;2024-03-22T14:52:51;23.10;38.50
49184;DHT22;35021;49.214;12.270;2024-03-22T14:55:17;23.10;38.50
49184;DHT22;35021;49.214;12.270;2024-03-22T14:57:43;23.10;38.50
49184;DHT22;35021;49.214;12.270;2024-03-22T15:00:09;23.00;38.50
49184;DHT22;35021;49.214;12.270;2024-03-22T15:02:36;23.00;38.50
49184;DHT22;35021;49.214;12.270;2024-03-22T15:05:02;23.10;38.50
49184;DHT22;35021;49.214;12.270;2024-03-22T15:07:30;23.10;38.40
49184;DHT22;35021;49.214;12.270;2024-03-22T15:09:56;23.20;38.40